<?xml version="1.0" encoding="utf-8"?>
<gpx xmlns:xsi="http://www.w3.org/2001/XMLSchema-instance" xmlns:xsd="http://www.w3.org/2001/XMLSchema" version="1.1" creator="Shapelink.com" xmlns="http://www.topografix.com/GPX/1/1" xmlns:gpxtpx="http://www.garmin.com/xmlschemas/TrackPointExtension/v1">
  <metadata>
    <name>Cycling 14.34 km, 2020-06-12</name>
    <desc></desc>
    <author><name>Marian Moron</name></author> 
    <time>2020-06-12T18:50:41Z</time>
  </metadata>
  <trk>
    <name>Cycling 14.34 km, 2020-06-12</name>
    <trkseg>
      <trkpt lat="51.228757180909" lon="4.447998816947">
        <ele>2.8</ele>
        <time>2020-06-12T18:50:41Z</time>
      </trkpt>
      <trkpt lat="51.228370356224" lon="4.447392637939">
        <ele>3.8</ele>
        <time>2020-06-12T18:51:03Z</time>
      </trkpt>
      <trkpt lat="51.228309922725" lon="4.44729951503">
        <ele>3.6</ele>
        <time>2020-06-12T18:51:06Z</time>
      </trkpt>
      <trkpt lat="51.227861323437" lon="4.447802931944">
        <ele>0.6</ele>
        <time>2020-06-12T18:51:24Z</time>
      </trkpt>
      <trkpt lat="51.227449101595" lon="4.44840089669">
        <ele>0</ele>
        <time>2020-06-12T18:51:39Z</time>
      </trkpt>
      <trkpt lat="51.227107036256" lon="4.449070191405">
        <ele>0</ele>
        <time>2020-06-12T18:51:58Z</time>
      </trkpt>
      <trkpt lat="51.226701352296" lon="4.449603364064">
        <ele>0</ele>
        <time>2020-06-12T18:52:18Z</time>
      </trkpt>
      <trkpt lat="51.226557351254" lon="4.449723057596">
        <ele>0</ele>
        <time>2020-06-12T18:52:29Z</time>
      </trkpt>
      <trkpt lat="51.226568331543" lon="4.449680896639">
        <ele>0</ele>
        <time>2020-06-12T18:52:32Z</time>
      </trkpt>
      <trkpt lat="51.226561123109" lon="4.449360540421">
        <ele>0</ele>
        <time>2020-06-12T18:52:41Z</time>
      </trkpt>
      <trkpt lat="51.226266415505" lon="4.44889207603">
        <ele>0</ele>
        <time>2020-06-12T18:52:55Z</time>
      </trkpt>
      <trkpt lat="51.225910520031" lon="4.449552905026">
        <ele>0</ele>
        <time>2020-06-12T18:53:10Z</time>
      </trkpt>
      <trkpt lat="51.225357566088" lon="4.449717441723">
        <ele>0</ele>
        <time>2020-06-12T18:53:25Z</time>
      </trkpt>
      <trkpt lat="51.22485448445" lon="4.450123125683">
        <ele>0</ele>
        <time>2020-06-12T18:53:41Z</time>
      </trkpt>
      <trkpt lat="51.224466067204" lon="4.450742296636">
        <ele>0</ele>
        <time>2020-06-12T18:53:55Z</time>
      </trkpt>
      <trkpt lat="51.224059712692" lon="4.451318049347">
        <ele>1</ele>
        <time>2020-06-12T18:54:10Z</time>
      </trkpt>
      <trkpt lat="51.223517906676" lon="4.451267255033">
        <ele>2.2</ele>
        <time>2020-06-12T18:54:25Z</time>
      </trkpt>
      <trkpt lat="51.222960510326" lon="4.45110992677">
        <ele>2.2</ele>
        <time>2020-06-12T18:54:40Z</time>
      </trkpt>
      <trkpt lat="51.222402275786" lon="4.451116129376">
        <ele>2.2</ele>
        <time>2020-06-12T18:54:55Z</time>
      </trkpt>
      <trkpt lat="51.221875808647" lon="4.4513672511">
        <ele>0</ele>
        <time>2020-06-12T18:55:11Z</time>
      </trkpt>
      <trkpt lat="51.221340875789" lon="4.451629939846">
        <ele>0</ele>
        <time>2020-06-12T18:55:29Z</time>
      </trkpt>
      <trkpt lat="51.220778869394" lon="4.451755919803">
        <ele>0</ele>
        <time>2020-06-12T18:55:43Z</time>
      </trkpt>
      <trkpt lat="51.22022097013" lon="4.451937387938">
        <ele>0</ele>
        <time>2020-06-12T18:55:57Z</time>
      </trkpt>
      <trkpt lat="51.219662987047" lon="4.451993714306">
        <ele>0</ele>
        <time>2020-06-12T18:56:10Z</time>
      </trkpt>
      <trkpt lat="51.219133083329" lon="4.452079796419">
        <ele>0</ele>
        <time>2020-06-12T18:56:23Z</time>
      </trkpt>
      <trkpt lat="51.21905504784" lon="4.452173841337">
        <ele>0.8</ele>
        <time>2020-06-12T18:56:25Z</time>
      </trkpt>
      <trkpt lat="51.218957063429" lon="4.452441391585">
        <ele>3.2</ele>
        <time>2020-06-12T18:56:30Z</time>
      </trkpt>
      <trkpt lat="51.219259901476" lon="4.453213616032">
        <ele>3</ele>
        <time>2020-06-12T18:56:42Z</time>
      </trkpt>
      <trkpt lat="51.219457881954" lon="4.453783249956">
        <ele>3.6</ele>
        <time>2020-06-12T18:56:53Z</time>
      </trkpt>
      <trkpt lat="51.218987322088" lon="4.454244254456">
        <ele>5.4</ele>
        <time>2020-06-12T18:57:10Z</time>
      </trkpt>
      <trkpt lat="51.218509469969" lon="4.454728309181">
        <ele>4.6</ele>
        <time>2020-06-12T18:57:27Z</time>
      </trkpt>
      <trkpt lat="51.218118957248" lon="4.455290483214">
        <ele>1.2</ele>
        <time>2020-06-12T18:57:45Z</time>
      </trkpt>
      <trkpt lat="51.218059864853" lon="4.456144431186">
        <ele>0</ele>
        <time>2020-06-12T18:58:01Z</time>
      </trkpt>
      <trkpt lat="51.218039664474" lon="4.457013550397">
        <ele>0</ele>
        <time>2020-06-12T18:58:16Z</time>
      </trkpt>
      <trkpt lat="51.217969340333" lon="4.457891219146">
        <ele>0</ele>
        <time>2020-06-12T18:58:32Z</time>
      </trkpt>
      <trkpt lat="51.217941680063" lon="4.458757991425">
        <ele>0</ele>
        <time>2020-06-12T18:58:47Z</time>
      </trkpt>
      <trkpt lat="51.217903123323" lon="4.459666254109">
        <ele>0</ele>
        <time>2020-06-12T18:59:02Z</time>
      </trkpt>
      <trkpt lat="51.217846294041" lon="4.460530427999">
        <ele>0</ele>
        <time>2020-06-12T18:59:15Z</time>
      </trkpt>
      <trkpt lat="51.21785643614" lon="4.461416562467">
        <ele>1</ele>
        <time>2020-06-12T18:59:29Z</time>
      </trkpt>
      <trkpt lat="51.217807737301" lon="4.462284759669">
        <ele>0</ele>
        <time>2020-06-12T18:59:44Z</time>
      </trkpt>
      <trkpt lat="51.217833637372" lon="4.462736124984">
        <ele>0</ele>
        <time>2020-06-12T18:59:51Z</time>
      </trkpt>
      <trkpt lat="51.217752081485" lon="4.463611446801">
        <ele>0</ele>
        <time>2020-06-12T19:00:05Z</time>
      </trkpt>
      <trkpt lat="51.21774160411" lon="4.463932976485">
        <ele>0</ele>
        <time>2020-06-12T19:00:10Z</time>
      </trkpt>
      <trkpt lat="51.217674213634" lon="4.464785750991">
        <ele>0</ele>
        <time>2020-06-12T19:00:23Z</time>
      </trkpt>
      <trkpt lat="51.217634148152" lon="4.465665431396">
        <ele>0</ele>
        <time>2020-06-12T19:00:38Z</time>
      </trkpt>
      <trkpt lat="51.217546892573" lon="4.466571514786">
        <ele>0</ele>
        <time>2020-06-12T19:00:52Z</time>
      </trkpt>
      <trkpt lat="51.217518980846" lon="4.46744960263">
        <ele>0</ele>
        <time>2020-06-12T19:01:06Z</time>
      </trkpt>
      <trkpt lat="51.217514203163" lon="4.468291564485">
        <ele>0</ele>
        <time>2020-06-12T19:01:21Z</time>
      </trkpt>
      <trkpt lat="51.217515711905" lon="4.469105195518">
        <ele>1</ele>
        <time>2020-06-12T19:01:35Z</time>
      </trkpt>
      <trkpt lat="51.217414374734" lon="4.469950845409">
        <ele>0</ele>
        <time>2020-06-12T19:01:53Z</time>
      </trkpt>
      <trkpt lat="51.217365592076" lon="4.470820299896">
        <ele>0</ele>
        <time>2020-06-12T19:02:08Z</time>
      </trkpt>
      <trkpt lat="51.217388893758" lon="4.471688748555">
        <ele>0</ele>
        <time>2020-06-12T19:02:23Z</time>
      </trkpt>
      <trkpt lat="51.217358048366" lon="4.472599944904">
        <ele>0</ele>
        <time>2020-06-12T19:02:39Z</time>
      </trkpt>
      <trkpt lat="51.217341955118" lon="4.473482726612">
        <ele>0</ele>
        <time>2020-06-12T19:02:56Z</time>
      </trkpt>
      <trkpt lat="51.217299375066" lon="4.474341955181">
        <ele>0</ele>
        <time>2020-06-12T19:03:12Z</time>
      </trkpt>
      <trkpt lat="51.21726132124" lon="4.47522130031">
        <ele>0.6</ele>
        <time>2020-06-12T19:03:31Z</time>
      </trkpt>
      <trkpt lat="51.217211281297" lon="4.476094945747">
        <ele>4</ele>
        <time>2020-06-12T19:03:48Z</time>
      </trkpt>
      <trkpt lat="51.217173898023" lon="4.476952665574">
        <ele>5.8</ele>
        <time>2020-06-12T19:04:05Z</time>
      </trkpt>
      <trkpt lat="51.217120002406" lon="4.477834692911">
        <ele>5</ele>
        <time>2020-06-12T19:04:21Z</time>
      </trkpt>
      <trkpt lat="51.217096365448" lon="4.478707500158">
        <ele>5</ele>
        <time>2020-06-12T19:04:36Z</time>
      </trkpt>
      <trkpt lat="51.217064765685" lon="4.479598244671">
        <ele>6</ele>
        <time>2020-06-12T19:04:52Z</time>
      </trkpt>
      <trkpt lat="51.21701656976" lon="4.480482535121">
        <ele>2.4</ele>
        <time>2020-06-12T19:05:10Z</time>
      </trkpt>
      <trkpt lat="51.216997542847" lon="4.481394988755">
        <ele>3.2</ele>
        <time>2020-06-12T19:05:26Z</time>
      </trkpt>
      <trkpt lat="51.217340697833" lon="4.481711237842">
        <ele>4.6</ele>
        <time>2020-06-12T19:05:44Z</time>
      </trkpt>
      <trkpt lat="51.217858699253" lon="4.481411584917">
        <ele>4.2</ele>
        <time>2020-06-12T19:06:02Z</time>
      </trkpt>
      <trkpt lat="51.218381897451" lon="4.481151410741">
        <ele>3.6</ele>
        <time>2020-06-12T19:06:22Z</time>
      </trkpt>
      <trkpt lat="51.218922362363" lon="4.480893499678">
        <ele>5</ele>
        <time>2020-06-12T19:06:41Z</time>
      </trkpt>
      <trkpt lat="51.219346318865" lon="4.48062092029">
        <ele>8.4</ele>
        <time>2020-06-12T19:07:02Z</time>
      </trkpt>
      <trkpt lat="51.219377918628" lon="4.480617818987">
        <ele>12.2</ele>
        <time>2020-06-12T19:07:42Z</time>
      </trkpt>
      <trkpt lat="51.219919976101" lon="4.480446409132">
        <ele>12</ele>
        <time>2020-06-12T19:08:02Z</time>
      </trkpt>
      <trkpt lat="51.220454657502" lon="4.480167627138">
        <ele>8.4</ele>
        <time>2020-06-12T19:08:16Z</time>
      </trkpt>
      <trkpt lat="51.220995625328" lon="4.479926731332">
        <ele>8.6</ele>
        <time>2020-06-12T19:08:31Z</time>
      </trkpt>
      <trkpt lat="51.221514548757" lon="4.479594305178">
        <ele>5.2</ele>
        <time>2020-06-12T19:08:46Z</time>
      </trkpt>
      <trkpt lat="51.222032885453" lon="4.47937788452">
        <ele>8</ele>
        <time>2020-06-12T19:09:03Z</time>
      </trkpt>
      <trkpt lat="51.222587348138" lon="4.47918845358">
        <ele>23.6</ele>
        <time>2020-06-12T19:09:22Z</time>
      </trkpt>
      <trkpt lat="51.223122113358" lon="4.479054846094">
        <ele>19.8</ele>
        <time>2020-06-12T19:09:38Z</time>
      </trkpt>
      <trkpt lat="51.223666182487" lon="4.479106730055">
        <ele>26.2</ele>
        <time>2020-06-12T19:09:53Z</time>
      </trkpt>
      <trkpt lat="51.224151913592" lon="4.479225082483">
        <ele>14.2</ele>
        <time>2020-06-12T19:10:10Z</time>
      </trkpt>
      <trkpt lat="51.224293651521" lon="4.480060254999">
        <ele>5.4</ele>
        <time>2020-06-12T19:10:32Z</time>
      </trkpt>
      <trkpt lat="51.224500349175" lon="4.480844297925">
        <ele>4.4</ele>
        <time>2020-06-12T19:10:52Z</time>
      </trkpt>
      <trkpt lat="51.224788183621" lon="4.481567907352">
        <ele>3.6</ele>
        <time>2020-06-12T19:11:14Z</time>
      </trkpt>
      <trkpt lat="51.225043999209" lon="4.482363349662">
        <ele>2</ele>
        <time>2020-06-12T19:11:33Z</time>
      </trkpt>
      <trkpt lat="51.22527525583" lon="4.483140100335">
        <ele>4.4</ele>
        <time>2020-06-12T19:11:55Z</time>
      </trkpt>
      <trkpt lat="51.224785836689" lon="4.48348082457">
        <ele>3.2</ele>
        <time>2020-06-12T19:12:17Z</time>
      </trkpt>
      <trkpt lat="51.224278731739" lon="4.483803862996">
        <ele>0</ele>
        <time>2020-06-12T19:12:37Z</time>
      </trkpt>
      <trkpt lat="51.224126348797" lon="4.483893130231">
        <ele>0</ele>
        <time>2020-06-12T19:12:45Z</time>
      </trkpt>
      <trkpt lat="51.224105477866" lon="4.483944511278">
        <ele>0.6</ele>
        <time>2020-06-12T19:13:55Z</time>
      </trkpt>
      <trkpt lat="51.224041943064" lon="4.483985163493">
        <ele>0.8</ele>
        <time>2020-06-12T19:14:00Z</time>
      </trkpt>
      <trkpt lat="51.223543890566" lon="4.484305854987">
        <ele>0</ele>
        <time>2020-06-12T19:14:24Z</time>
      </trkpt>
      <trkpt lat="51.223022284929" lon="4.484630066879">
        <ele>0</ele>
        <time>2020-06-12T19:14:41Z</time>
      </trkpt>
      <trkpt lat="51.222719865977" lon="4.484833327954">
        <ele>0.2</ele>
        <time>2020-06-12T19:14:53Z</time>
      </trkpt>
      <trkpt lat="51.222669406939" lon="4.484796615232">
        <ele>1.2</ele>
        <time>2020-06-12T19:14:55Z</time>
      </trkpt>
      <trkpt lat="51.222346368513" lon="4.484017349989">
        <ele>1.4</ele>
        <time>2020-06-12T19:15:15Z</time>
      </trkpt>
      <trkpt lat="51.222117626462" lon="4.484147604715">
        <ele>3.8</ele>
        <time>2020-06-12T19:15:24Z</time>
      </trkpt>
      <trkpt lat="51.221847394006" lon="4.483366998368">
        <ele>4.8</ele>
        <time>2020-06-12T19:15:42Z</time>
      </trkpt>
      <trkpt lat="51.221577245369" lon="4.482564263805">
        <ele>5.2</ele>
        <time>2020-06-12T19:15:59Z</time>
      </trkpt>
      <trkpt lat="51.221436261811" lon="4.48222018681">
        <ele>5.4</ele>
        <time>2020-06-12T19:16:08Z</time>
      </trkpt>
      <trkpt lat="51.220943657548" lon="4.48259234317">
        <ele>3</ele>
        <time>2020-06-12T19:16:29Z</time>
      </trkpt>
      <trkpt lat="51.220475193157" lon="4.483019736251">
        <ele>2.6</ele>
        <time>2020-06-12T19:16:52Z</time>
      </trkpt>
      <trkpt lat="51.220196830258" lon="4.483219644566">
        <ele>4.6</ele>
        <time>2020-06-12T19:17:04Z</time>
      </trkpt>
      <trkpt lat="51.219996419029" lon="4.48241632327">
        <ele>5.8</ele>
        <time>2020-06-12T19:17:24Z</time>
      </trkpt>
      <trkpt lat="51.219825679726" lon="4.481593975061">
        <ele>7.8</ele>
        <time>2020-06-12T19:17:42Z</time>
      </trkpt>
      <trkpt lat="51.219703052529" lon="4.480723933841">
        <ele>6</ele>
        <time>2020-06-12T19:17:58Z</time>
      </trkpt>
      <trkpt lat="51.219491912468" lon="4.47993360449">
        <ele>7</ele>
        <time>2020-06-12T19:18:14Z</time>
      </trkpt>
      <trkpt lat="51.219303571175" lon="4.479096671775">
        <ele>7.8</ele>
        <time>2020-06-12T19:18:29Z</time>
      </trkpt>
      <trkpt lat="51.219150014767" lon="4.478229145125">
        <ele>6.4</ele>
        <time>2020-06-12T19:18:44Z</time>
      </trkpt>
      <trkpt lat="51.218982376767" lon="4.477380729207">
        <ele>5.6</ele>
        <time>2020-06-12T19:18:59Z</time>
      </trkpt>
      <trkpt lat="51.218938623249" lon="4.476520578629">
        <ele>5.4</ele>
        <time>2020-06-12T19:19:14Z</time>
      </trkpt>
      <trkpt lat="51.219034428366" lon="4.475665457191">
        <ele>4.2</ele>
        <time>2020-06-12T19:19:29Z</time>
      </trkpt>
      <trkpt lat="51.219147332559" lon="4.474786698795">
        <ele>5</ele>
        <time>2020-06-12T19:19:46Z</time>
      </trkpt>
      <trkpt lat="51.219272809602" lon="4.473930906805">
        <ele>5.8</ele>
        <time>2020-06-12T19:20:04Z</time>
      </trkpt>
      <trkpt lat="51.219402729052" lon="4.473070588589">
        <ele>5.2</ele>
        <time>2020-06-12T19:20:21Z</time>
      </trkpt>
      <trkpt lat="51.219514627417" lon="4.472207001432">
        <ele>5</ele>
        <time>2020-06-12T19:20:38Z</time>
      </trkpt>
      <trkpt lat="51.219667429454" lon="4.471373589115">
        <ele>4.2</ele>
        <time>2020-06-12T19:20:54Z</time>
      </trkpt>
      <trkpt lat="51.219817381645" lon="4.47054587649">
        <ele>2.4</ele>
        <time>2020-06-12T19:21:10Z</time>
      </trkpt>
      <trkpt lat="51.219796343076" lon="4.470429619537">
        <ele>2</ele>
        <time>2020-06-12T19:21:13Z</time>
      </trkpt>
      <trkpt lat="51.219590232155" lon="4.470432888478">
        <ele>1</ele>
        <time>2020-06-12T19:21:24Z</time>
      </trkpt>
      <trkpt lat="51.21939702936" lon="4.47124744152">
        <ele>0</ele>
        <time>2020-06-12T19:21:42Z</time>
      </trkpt>
      <trkpt lat="51.219263589512" lon="4.472086134434">
        <ele>0</ele>
        <time>2020-06-12T19:21:59Z</time>
      </trkpt>
      <trkpt lat="51.219154121898" lon="4.472574799204">
        <ele>0.6</ele>
        <time>2020-06-12T19:22:10Z</time>
      </trkpt>
      <trkpt lat="51.218634192641" lon="4.472309931164">
        <ele>7.6</ele>
        <time>2020-06-12T19:22:24Z</time>
      </trkpt>
      <trkpt lat="51.218160447653" lon="4.471934422044">
        <ele>7</ele>
        <time>2020-06-12T19:22:39Z</time>
      </trkpt>
      <trkpt lat="51.217819136685" lon="4.471225564761">
        <ele>9.2</ele>
        <time>2020-06-12T19:22:53Z</time>
      </trkpt>
      <trkpt lat="51.2175077491" lon="4.470488711932">
        <ele>10.4</ele>
        <time>2020-06-12T19:23:09Z</time>
      </trkpt>
      <trkpt lat="51.217567931142" lon="4.469642642946">
        <ele>3.2</ele>
        <time>2020-06-12T19:23:25Z</time>
      </trkpt>
      <trkpt lat="51.217535157913" lon="4.468779893979">
        <ele>1</ele>
        <time>2020-06-12T19:23:42Z</time>
      </trkpt>
      <trkpt lat="51.21727808504" lon="4.46809584712">
        <ele>2.8</ele>
        <time>2020-06-12T19:23:57Z</time>
      </trkpt>
      <trkpt lat="51.216885560663" lon="4.46749989403">
        <ele>2.6</ele>
        <time>2020-06-12T19:24:13Z</time>
      </trkpt>
      <trkpt lat="51.216474847563" lon="4.466899833809">
        <ele>2.8</ele>
        <time>2020-06-12T19:24:30Z</time>
      </trkpt>
      <trkpt lat="51.216062458083" lon="4.466263982875">
        <ele>6.4</ele>
        <time>2020-06-12T19:24:46Z</time>
      </trkpt>
      <trkpt lat="51.215590557113" lon="4.46601126859">
        <ele>0</ele>
        <time>2020-06-12T19:25:01Z</time>
      </trkpt>
      <trkpt lat="51.215389475332" lon="4.466789192729">
        <ele>0</ele>
        <time>2020-06-12T19:25:22Z</time>
      </trkpt>
      <trkpt lat="51.215371454247" lon="4.466941240395">
        <ele>0</ele>
        <time>2020-06-12T19:25:26Z</time>
      </trkpt>
      <trkpt lat="51.214844735651" lon="4.467181717106">
        <ele>0.6</ele>
        <time>2020-06-12T19:25:49Z</time>
      </trkpt>
      <trkpt lat="51.214417677846" lon="4.466630020448">
        <ele>0</ele>
        <time>2020-06-12T19:26:06Z</time>
      </trkpt>
      <trkpt lat="51.213921469366" lon="4.466270604576">
        <ele>2.8</ele>
        <time>2020-06-12T19:26:21Z</time>
      </trkpt>
      <trkpt lat="51.213443533428" lon="4.466133895787">
        <ele>0.8</ele>
        <time>2020-06-12T19:26:37Z</time>
      </trkpt>
      <trkpt lat="51.213342280076" lon="4.466832191876">
        <ele>0</ele>
        <time>2020-06-12T19:26:53Z</time>
      </trkpt>
      <trkpt lat="51.213378070789" lon="4.467249945772">
        <ele>0</ele>
        <time>2020-06-12T19:27:02Z</time>
      </trkpt>
      <trkpt lat="51.213340771334" lon="4.46730375757">
        <ele>0</ele>
        <time>2020-06-12T19:27:04Z</time>
      </trkpt>
      <trkpt lat="51.213220239612" lon="4.467337788084">
        <ele>0</ele>
        <time>2020-06-12T19:27:09Z</time>
      </trkpt>
      <trkpt lat="51.212776334188" lon="4.467685888391">
        <ele>0</ele>
        <time>2020-06-12T19:27:27Z</time>
      </trkpt>
      <trkpt lat="51.212362771242" lon="4.467153218646">
        <ele>4.6</ele>
        <time>2020-06-12T19:27:50Z</time>
      </trkpt>
      <trkpt lat="51.212156911778" lon="4.466341431631">
        <ele>4.6</ele>
        <time>2020-06-12T19:28:09Z</time>
      </trkpt>
      <trkpt lat="51.211964211897" lon="4.465613882711">
        <ele>2.8</ele>
        <time>2020-06-12T19:28:27Z</time>
      </trkpt>
      <trkpt lat="51.211535477712" lon="4.465992325496">
        <ele>1</ele>
        <time>2020-06-12T19:28:45Z</time>
      </trkpt>
      <trkpt lat="51.211456520214" lon="4.466109839734">
        <ele>3.2</ele>
        <time>2020-06-12T19:28:51Z</time>
      </trkpt>
      <trkpt lat="51.211524497423" lon="4.46696261424">
        <ele>0.4</ele>
        <time>2020-06-12T19:29:11Z</time>
      </trkpt>
      <trkpt lat="51.211488874348" lon="4.467832739279">
        <ele>0</ele>
        <time>2020-06-12T19:29:27Z</time>
      </trkpt>
      <trkpt lat="51.211384016779" lon="4.468725914543">
        <ele>0</ele>
        <time>2020-06-12T19:29:45Z</time>
      </trkpt>
      <trkpt lat="51.211393572145" lon="4.469570307149">
        <ele>0</ele>
        <time>2020-06-12T19:30:02Z</time>
      </trkpt>
      <trkpt lat="51.211566574561" lon="4.470417717239">
        <ele>0</ele>
        <time>2020-06-12T19:30:21Z</time>
      </trkpt>
      <trkpt lat="51.211825491452" lon="4.471212488997">
        <ele>0</ele>
        <time>2020-06-12T19:30:39Z</time>
      </trkpt>
      <trkpt lat="51.212179626727" lon="4.471916233321">
        <ele>0</ele>
        <time>2020-06-12T19:30:55Z</time>
      </trkpt>
      <trkpt lat="51.212514735089" lon="4.472614864686">
        <ele>0</ele>
        <time>2020-06-12T19:31:10Z</time>
      </trkpt>
      <trkpt lat="51.212702992563" lon="4.472923737701">
        <ele>0</ele>
        <time>2020-06-12T19:31:17Z</time>
      </trkpt>
      <trkpt lat="51.212845987777" lon="4.473286254876">
        <ele>0</ele>
        <time>2020-06-12T19:31:24Z</time>
      </trkpt>
      <trkpt lat="51.213086799764" lon="4.474064933386">
        <ele>0</ele>
        <time>2020-06-12T19:31:41Z</time>
      </trkpt>
      <trkpt lat="51.213302214594" lon="4.474890382898">
        <ele>0</ele>
        <time>2020-06-12T19:31:57Z</time>
      </trkpt>
      <trkpt lat="51.213456357735" lon="4.475721029188">
        <ele>0</ele>
        <time>2020-06-12T19:32:13Z</time>
      </trkpt>
      <trkpt lat="51.213584265529" lon="4.476578581377">
        <ele>0</ele>
        <time>2020-06-12T19:32:33Z</time>
      </trkpt>
      <trkpt lat="51.213681076474" lon="4.477001699689">
        <ele>0</ele>
        <time>2020-06-12T19:32:44Z</time>
      </trkpt>
      <trkpt lat="51.213710664581" lon="4.477014440177">
        <ele>6</ele>
        <time>2020-06-12T19:33:12Z</time>
      </trkpt>
      <trkpt lat="51.214043174554" lon="4.477732266093">
        <ele>3.8</ele>
        <time>2020-06-12T19:33:32Z</time>
      </trkpt>
      <trkpt lat="51.214477776069" lon="4.478307180614">
        <ele>0</ele>
        <time>2020-06-12T19:33:50Z</time>
      </trkpt>
      <trkpt lat="51.214937690922" lon="4.478770951141">
        <ele>0</ele>
        <time>2020-06-12T19:34:06Z</time>
      </trkpt>
      <trkpt lat="51.215478994024" lon="4.478833144839">
        <ele>0</ele>
        <time>2020-06-12T19:34:23Z</time>
      </trkpt>
      <trkpt lat="51.215839918638" lon="4.478156138776">
        <ele>0</ele>
        <time>2020-06-12T19:34:39Z</time>
      </trkpt>
      <trkpt lat="51.216265719158" lon="4.477649452921">
        <ele>0</ele>
        <time>2020-06-12T19:34:55Z</time>
      </trkpt>
      <trkpt lat="51.216802998948" lon="4.477592958915">
        <ele>0</ele>
        <time>2020-06-12T19:35:11Z</time>
      </trkpt>
      <trkpt lat="51.217223686509" lon="4.477151232785">
        <ele>3</ele>
        <time>2020-06-12T19:35:29Z</time>
      </trkpt>
      <trkpt lat="51.217264925457" lon="4.47624808306">
        <ele>5.8</ele>
        <time>2020-06-12T19:35:47Z</time>
      </trkpt>
      <trkpt lat="51.217345307878" lon="4.475374772899">
        <ele>7.4</ele>
        <time>2020-06-12T19:36:05Z</time>
      </trkpt>
      <trkpt lat="51.217414626191" lon="4.474470030613">
        <ele>6</ele>
        <time>2020-06-12T19:36:22Z</time>
      </trkpt>
      <trkpt lat="51.217417476037" lon="4.473595127891">
        <ele>4.4</ele>
        <time>2020-06-12T19:36:34Z</time>
      </trkpt>
      <trkpt lat="51.217398532943" lon="4.47273439058">
        <ele>6</ele>
        <time>2020-06-12T19:36:49Z</time>
      </trkpt>
      <trkpt lat="51.217463827944" lon="4.47184004185">
        <ele>6</ele>
        <time>2020-06-12T19:37:06Z</time>
      </trkpt>
      <trkpt lat="51.217523926167" lon="4.470961283454">
        <ele>0</ele>
        <time>2020-06-12T19:37:21Z</time>
      </trkpt>
      <trkpt lat="51.217568350237" lon="4.470070958036">
        <ele>0</ele>
        <time>2020-06-12T19:37:37Z</time>
      </trkpt>
      <trkpt lat="51.21758737715" lon="4.469195384762">
        <ele>0</ele>
        <time>2020-06-12T19:37:53Z</time>
      </trkpt>
      <trkpt lat="51.217592573928" lon="4.468311597226">
        <ele>0</ele>
        <time>2020-06-12T19:38:06Z</time>
      </trkpt>
      <trkpt lat="51.217683433724" lon="4.46745882272">
        <ele>0</ele>
        <time>2020-06-12T19:38:26Z</time>
      </trkpt>
      <trkpt lat="51.217713776202" lon="4.466561875601">
        <ele>0</ele>
        <time>2020-06-12T19:38:48Z</time>
      </trkpt>
      <trkpt lat="51.217768007095" lon="4.465368795955">
        <ele>2.8</ele>
        <time>2020-06-12T19:39:12Z</time>
      </trkpt>
      <trkpt lat="51.217735904418" lon="4.464477799985">
        <ele>5</ele>
        <time>2020-06-12T19:39:28Z</time>
      </trkpt>
      <trkpt lat="51.217832799182" lon="4.463585882006">
        <ele>0</ele>
        <time>2020-06-12T19:39:44Z</time>
      </trkpt>
      <trkpt lat="51.217845120575" lon="4.462715421691">
        <ele>0</ele>
        <time>2020-06-12T19:39:58Z</time>
      </trkpt>
      <trkpt lat="51.217841516358" lon="4.461826018282">
        <ele>0</ele>
        <time>2020-06-12T19:40:13Z</time>
      </trkpt>
      <trkpt lat="51.217822489445" lon="4.461456376492">
        <ele>0</ele>
        <time>2020-06-12T19:40:21Z</time>
      </trkpt>
      <trkpt lat="51.217304739482" lon="4.461712694994">
        <ele>0</ele>
        <time>2020-06-12T19:40:38Z</time>
      </trkpt>
      <trkpt lat="51.216813811599" lon="4.462069009563">
        <ele>0</ele>
        <time>2020-06-12T19:40:53Z</time>
      </trkpt>
      <trkpt lat="51.216306706649" lon="4.462404620839">
        <ele>0</ele>
        <time>2020-06-12T19:41:08Z</time>
      </trkpt>
      <trkpt lat="51.21579951788" lon="4.462730006197">
        <ele>0</ele>
        <time>2020-06-12T19:41:23Z</time>
      </trkpt>
      <trkpt lat="51.215302052115" lon="4.463144072057">
        <ele>0</ele>
        <time>2020-06-12T19:41:40Z</time>
      </trkpt>
      <trkpt lat="51.214777848089" lon="4.463442467697">
        <ele>0</ele>
        <time>2020-06-12T19:41:59Z</time>
      </trkpt>
      <trkpt lat="51.214230090924" lon="4.463558976107">
        <ele>0</ele>
        <time>2020-06-12T19:42:16Z</time>
      </trkpt>
      <trkpt lat="51.213671940203" lon="4.463700546398">
        <ele>0</ele>
        <time>2020-06-12T19:42:34Z</time>
      </trkpt>
      <trkpt lat="51.213112448378" lon="4.463852510245">
        <ele>0</ele>
        <time>2020-06-12T19:42:51Z</time>
      </trkpt>
      <trkpt lat="51.212567792516" lon="4.463949656466">
        <ele>0</ele>
        <time>2020-06-12T19:43:07Z</time>
      </trkpt>
      <trkpt lat="51.212010396166" lon="4.464098267553">
        <ele>0</ele>
        <time>2020-06-12T19:43:24Z</time>
      </trkpt>
      <trkpt lat="51.211588535139" lon="4.463975388899">
        <ele>0</ele>
        <time>2020-06-12T19:43:40Z</time>
      </trkpt>
      <trkpt lat="51.211030384418" lon="4.463892156632">
        <ele>0</ele>
        <time>2020-06-12T19:43:59Z</time>
      </trkpt>
      <trkpt lat="51.210606427916" lon="4.463652937206">
        <ele>1.8</ele>
        <time>2020-06-12T19:44:14Z</time>
      </trkpt>
      <trkpt lat="51.210835840519" lon="4.462833606481">
        <ele>8.8</ele>
        <time>2020-06-12T19:44:34Z</time>
      </trkpt>
      <trkpt lat="51.211143791525" lon="4.462082169146">
        <ele>19.4</ele>
        <time>2020-06-12T19:44:52Z</time>
      </trkpt>
      <trkpt lat="51.21147529567" lon="4.461377335175">
        <ele>14.4</ele>
        <time>2020-06-12T19:45:13Z</time>
      </trkpt>
      <trkpt lat="51.211845356555" lon="4.46082119611">
        <ele>12.8</ele>
        <time>2020-06-12T19:45:35Z</time>
      </trkpt>
      <trkpt lat="51.212205442979" lon="4.460155589431">
        <ele>19.8</ele>
        <time>2020-06-12T19:45:54Z</time>
      </trkpt>
      <trkpt lat="51.212664352004" lon="4.459734147499">
        <ele>3.6</ele>
        <time>2020-06-12T19:46:15Z</time>
      </trkpt>
      <trkpt lat="51.213020750392" lon="4.459425023027">
        <ele>3</ele>
        <time>2020-06-12T19:46:34Z</time>
      </trkpt>
      <trkpt lat="51.213044052074" lon="4.459410857616">
        <ele>3.6</ele>
        <time>2020-06-12T19:46:36Z</time>
      </trkpt>
      <trkpt lat="51.213517629424" lon="4.458986817295">
        <ele>21.6</ele>
        <time>2020-06-12T19:46:59Z</time>
      </trkpt>
      <trkpt lat="51.213800602368" lon="4.45882798029">
        <ele>20</ele>
        <time>2020-06-12T19:47:10Z</time>
      </trkpt>
      <trkpt lat="51.214182817008" lon="4.459497777919">
        <ele>5.4</ele>
        <time>2020-06-12T19:47:31Z</time>
      </trkpt>
      <trkpt lat="51.214449696704" lon="4.460212418713">
        <ele>0</ele>
        <time>2020-06-12T19:47:47Z</time>
      </trkpt>
      <trkpt lat="51.214756725701" lon="4.460934519398">
        <ele>0.4</ele>
        <time>2020-06-12T19:48:03Z</time>
      </trkpt>
      <trkpt lat="51.215072304236" lon="4.461683609801">
        <ele>0</ele>
        <time>2020-06-12T19:48:20Z</time>
      </trkpt>
      <trkpt lat="51.215384110916" lon="4.462433957489">
        <ele>0</ele>
        <time>2020-06-12T19:48:37Z</time>
      </trkpt>
      <trkpt lat="51.215460134749" lon="4.462466479261">
        <ele>0</ele>
        <time>2020-06-12T19:48:40Z</time>
      </trkpt>
      <trkpt lat="51.215846288882" lon="4.461810511767">
        <ele>0</ele>
        <time>2020-06-12T19:48:56Z</time>
      </trkpt>
      <trkpt lat="51.216172009516" lon="4.461096541525">
        <ele>0</ele>
        <time>2020-06-12T19:49:11Z</time>
      </trkpt>
      <trkpt lat="51.216517679072" lon="4.460412578485">
        <ele>0.2</ele>
        <time>2020-06-12T19:49:28Z</time>
      </trkpt>
      <trkpt lat="51.216857565117" lon="4.459689807248">
        <ele>0</ele>
        <time>2020-06-12T19:49:45Z</time>
      </trkpt>
      <trkpt lat="51.217217651541" lon="4.458991259702">
        <ele>0</ele>
        <time>2020-06-12T19:50:01Z</time>
      </trkpt>
      <trkpt lat="51.217564159287" lon="4.458327329403">
        <ele>1.4</ele>
        <time>2020-06-12T19:50:16Z</time>
      </trkpt>
      <trkpt lat="51.217899267649" lon="4.457627021658">
        <ele>4.4</ele>
        <time>2020-06-12T19:50:36Z</time>
      </trkpt>
      <trkpt lat="51.218049136021" lon="4.456802242698">
        <ele>8.4</ele>
        <time>2020-06-12T19:51:01Z</time>
      </trkpt>
      <trkpt lat="51.21812214237" lon="4.455932201478">
        <ele>2.6</ele>
        <time>2020-06-12T19:51:19Z</time>
      </trkpt>
      <trkpt lat="51.218203530619" lon="4.455031231047">
        <ele>0</ele>
        <time>2020-06-12T19:51:35Z</time>
      </trkpt>
      <trkpt lat="51.218230687975" lon="4.454167057157">
        <ele>0</ele>
        <time>2020-06-12T19:51:51Z</time>
      </trkpt>
      <trkpt lat="51.21828056028" lon="4.453297937946">
        <ele>0</ele>
        <time>2020-06-12T19:52:09Z</time>
      </trkpt>
      <trkpt lat="51.218308388188" lon="4.452420436835">
        <ele>0</ele>
        <time>2020-06-12T19:52:27Z</time>
      </trkpt>
      <trkpt lat="51.218409138626" lon="4.451926994382">
        <ele>0</ele>
        <time>2020-06-12T19:52:36Z</time>
      </trkpt>
      <trkpt lat="51.218481809699" lon="4.451872092937">
        <ele>0</ele>
        <time>2020-06-12T19:52:38Z</time>
      </trkpt>
      <trkpt lat="51.218698062719" lon="4.451821885356">
        <ele>0</ele>
        <time>2020-06-12T19:52:43Z</time>
      </trkpt>
      <trkpt lat="51.219066614862" lon="4.452125980688">
        <ele>0</ele>
        <time>2020-06-12T19:53:06Z</time>
      </trkpt>
      <trkpt lat="51.219631387284" lon="4.452068899949">
        <ele>0</ele>
        <time>2020-06-12T19:53:26Z</time>
      </trkpt>
      <trkpt lat="51.220186855797" lon="4.452020536386">
        <ele>0</ele>
        <time>2020-06-12T19:53:48Z</time>
      </trkpt>
      <trkpt lat="51.220751628219" lon="4.451872176756">
        <ele>0</ele>
        <time>2020-06-12T19:54:06Z</time>
      </trkpt>
      <trkpt lat="51.221299553022" lon="4.451753991966">
        <ele>6</ele>
        <time>2020-06-12T19:54:21Z</time>
      </trkpt>
      <trkpt lat="51.22181520751" lon="4.451513682893">
        <ele>2.2</ele>
        <time>2020-06-12T19:54:32Z</time>
      </trkpt>
      <trkpt lat="51.221906234944" lon="4.451441514734">
        <ele>2.4</ele>
        <time>2020-06-12T19:54:33Z</time>
      </trkpt>
      <trkpt lat="51.222385931081" lon="4.451168013337">
        <ele>0</ele>
        <time>2020-06-12T19:54:46Z</time>
      </trkpt>
      <trkpt lat="51.22295011677" lon="4.451142029447">
        <ele>0</ele>
        <time>2020-06-12T19:55:00Z</time>
      </trkpt>
      <trkpt lat="51.223483457067" lon="4.451320144822">
        <ele>0</ele>
        <time>2020-06-12T19:55:14Z</time>
      </trkpt>
      <trkpt lat="51.22356115728" lon="4.451331963301">
        <ele>0</ele>
        <time>2020-06-12T19:55:16Z</time>
      </trkpt>
      <trkpt lat="51.224087205324" lon="4.451320815374">
        <ele>0</ele>
        <time>2020-06-12T19:55:30Z</time>
      </trkpt>
      <trkpt lat="51.224502277012" lon="4.450729220872">
        <ele>0</ele>
        <time>2020-06-12T19:55:45Z</time>
      </trkpt>
      <trkpt lat="51.224898489425" lon="4.450094627223">
        <ele>0</ele>
        <time>2020-06-12T19:56:01Z</time>
      </trkpt>
      <trkpt lat="51.225394614086" lon="4.449730852763">
        <ele>0.2</ele>
        <time>2020-06-12T19:56:21Z</time>
      </trkpt>
      <trkpt lat="51.2259147948" lon="4.449558269442">
        <ele>0</ele>
        <time>2020-06-12T19:56:40Z</time>
      </trkpt>
      <trkpt lat="51.226252333913" lon="4.448886460157">
        <ele>0</ele>
        <time>2020-06-12T19:56:55Z</time>
      </trkpt>
      <trkpt lat="51.226272199016" lon="4.448847903417">
        <ele>0</ele>
        <time>2020-06-12T19:56:56Z</time>
      </trkpt>
      <trkpt lat="51.226585933533" lon="4.449299101094">
        <ele>0</ele>
        <time>2020-06-12T19:57:09Z</time>
      </trkpt>
      <trkpt lat="51.226642678996" lon="4.449276469964">
        <ele>0</ele>
        <time>2020-06-12T19:57:11Z</time>
      </trkpt>
      <trkpt lat="51.227047776223" lon="4.448658723934">
        <ele>0</ele>
        <time>2020-06-12T19:57:31Z</time>
      </trkpt>
      <trkpt lat="51.227464356653" lon="4.448082300671">
        <ele>0</ele>
        <time>2020-06-12T19:57:48Z</time>
      </trkpt>
      <trkpt lat="51.22787783578" lon="4.447454412542">
        <ele>0</ele>
        <time>2020-06-12T19:58:04Z</time>
      </trkpt>
      <trkpt lat="51.22813432192" lon="4.447035736637">
        <ele>0</ele>
        <time>2020-06-12T19:58:15Z</time>
      </trkpt>
      <trkpt lat="51.228178494533" lon="4.447124836234">
        <ele>0</ele>
        <time>2020-06-12T19:58:22Z</time>
      </trkpt>
      <trkpt lat="51.228206657717" lon="4.447159453481">
        <ele>0</ele>
        <time>2020-06-12T19:58:24Z</time>
      </trkpt>
      <trkpt lat="51.228603289225" lon="4.447732440165">
        <ele>0</ele>
        <time>2020-06-12T19:58:41Z</time>
      </trkpt>
      <trkpt lat="51.229009476099" lon="4.448341469019">
        <ele>3.2</ele>
        <time>2020-06-12T19:59:01Z</time>
      </trkpt>
      <trkpt lat="51.229061527698" lon="4.448453954117">
        <ele>4.2</ele>
        <time>2020-06-12T19:59:05Z</time>
      </trkpt>
      <trkpt lat="51.2290244797" lon="4.448560571885">
        <ele>4.8</ele>
        <time>2020-06-12T19:59:15Z</time>
      </trkpt>
      <trkpt lat="51.228895230802" lon="4.448651347862">
        <ele>3.6</ele>
        <time>2020-06-12T19:59:21Z</time>
      </trkpt>
      <trkpt lat="51.228879891925" lon="4.448723264564">
        <ele>6.4</ele>
        <time>2020-06-12T20:00:08Z</time>
      </trkpt>
      <trkpt lat="51.228876706803" lon="4.44874455459">
        <ele>6.4</ele>
        <time>2020-06-12T20:00:10Z</time>
      </trkpt>
      <trkpt lat="51.228497593466" lon="4.449265322037">
        <ele>0</ele>
        <time>2020-06-12T20:00:32Z</time>
      </trkpt>
    </trkseg>
  </trk>
</gpx>